createdAt,value
2024-03-24T00:00:07.759Z,64.48
2024-03-24T00:01:07.715Z,69.16
2024-03-24T00:02:07.667Z,68.36
2024-03-24T00:03:07.817Z,61.64
2024-03-24T00:04:07.742Z,64.47
2024-03-24T00:05:07.681Z,62.16
2024-03-24T00:06:07.622Z,59.33
2024-03-24T00:07:07.620Z,66.46
2024-03-24T00:08:08.584Z,65.32
2024-03-24T00:09:07.586Z,65.35
2024-03-24T00:10:07.605Z,64.12
2024-03-24T00:11:07.575Z,58.37
2024-03-24T00:12:07.510Z,67.11
2024-03-24T00:13:07.528Z,66.67
2024-03-24T00:14:07.454Z,64.77
2024-03-24T00:15:07.598Z,66.19
2024-03-24T00:16:07.473Z,64.06
2024-03-24T00:17:07.389Z,64.28
2024-03-24T00:18:07.383Z,63.79
2024-03-24T00:19:07.414Z,61.66
2024-03-24T00:20:07.338Z,65.83
2024-03-24T00:21:07.361Z,63.77
2024-03-24T00:22:07.330Z,66.02
2024-03-24T00:23:07.302Z,62.34
2024-03-24T00:24:07.270Z,55.93
2024-03-24T00:25:07.290Z,60.48
2024-03-24T00:26:07.234Z,58.74
2024-03-24T00:27:07.216Z,63.88
2024-03-24T00:28:07.236Z,66.08
2024-03-24T00:29:07.179Z,60.46
2024-03-24T00:30:07.159Z,67.46
2024-03-24T00:31:07.223Z,60.55
2024-03-24T00:32:07.136Z,66.03
2024-03-24T00:33:07.135Z,67.87
2024-03-24T00:34:07.147Z,62.71
2024-03-24T00:35:07.149Z,66.29
2024-03-24T00:36:07.080Z,58.85
2024-03-24T00:37:07.074Z,65.57
2024-03-24T00:38:07.017Z,63.21
2024-03-24T00:39:07.003Z,65.20
2024-03-24T00:40:07.013Z,63.02
2024-03-24T00:41:06.973Z,61.76
2024-03-24T00:42:07.031Z,66.39
2024-03-24T00:43:06.970Z,63.64
2024-03-24T00:44:06.939Z,62.87
2024-03-24T00:45:06.910Z,60.57
2024-03-24T00:46:06.898Z,64.22
2024-03-24T00:47:06.845Z,58.76
2024-03-24T00:48:06.834Z,57.62
2024-03-24T00:49:06.813Z,68.96
2024-03-24T00:50:07.772Z,62.37
2024-03-24T00:51:06.780Z,62.00
2024-03-24T00:52:06.792Z,61.91
2024-03-24T00:53:06.802Z,66.84
2024-03-24T00:54:07.723Z,58.53
2024-03-24T00:55:06.722Z,65.00
2024-03-24T00:56:07.343Z,66.23
2024-03-24T00:57:06.766Z,59.13
2024-03-24T00:58:06.680Z,65.81
2024-03-24T00:59:06.669Z,67.07
2024-03-24T01:00:06.601Z,65.90
2024-03-24T01:01:06.615Z,58.61
2024-03-24T01:02:06.585Z,63.49
2024-03-24T01:03:06.585Z,64.25
2024-03-24T01:04:06.582Z,62.86
2024-03-24T01:05:06.534Z,60.50
2024-03-24T01:06:06.497Z,62.55
2024-03-24T01:07:06.480Z,59.27
2024-03-24T01:08:06.478Z,59.72
2024-03-24T01:09:06.477Z,61.98
2024-03-24T01:10:06.461Z,63.21
2024-03-24T01:11:06.463Z,64.03
2024-03-24T01:12:06.409Z,66.11
2024-03-24T01:13:06.400Z,63.97
2024-03-24T01:14:06.380Z,63.25
2024-03-24T01:15:06.373Z,65.99
2024-03-24T01:16:06.322Z,64.49
2024-03-24T01:17:06.297Z,56.38
2024-03-24T01:18:06.280Z,64.92
2024-03-24T01:19:06.327Z,67.73
2024-03-24T01:20:06.264Z,68.59
2024-03-24T01:21:06.226Z,64.02
2024-03-24T01:22:06.232Z,65.66
2024-03-24T01:23:06.193Z,62.05
2024-03-24T01:24:06.223Z,67.32
2024-03-24T01:25:06.177Z,65.48
2024-03-24T01:26:06.159Z,66.22
2024-03-24T01:27:06.146Z,63.54
2024-03-24T01:28:06.159Z,65.19
2024-03-24T01:29:06.091Z,58.85
2024-03-24T01:30:06.088Z,51.16
2024-03-24T01:31:06.079Z,61.22
2024-03-24T01:32:06.030Z,64.91
2024-03-24T01:33:06.035Z,66.40
2024-03-24T01:34:05.997Z,64.77
2024-03-24T01:35:06.766Z,60.44
2024-03-24T01:36:05.966Z,61.05
2024-03-24T01:37:05.984Z,62.66
2024-03-24T01:38:05.917Z,61.48
2024-03-24T01:39:05.901Z,64.89
2024-03-24T01:40:06.988Z,62.61
2024-03-24T01:41:05.862Z,59.72
2024-03-24T01:42:06.846Z,64.59
2024-03-24T01:43:06.842Z,63.02
2024-03-24T01:44:05.832Z,63.22
2024-03-24T01:45:06.754Z,62.01
2024-03-24T01:46:06.025Z,62.57
2024-03-24T01:47:05.766Z,59.22
2024-03-24T01:48:05.749Z,62.95
2024-03-24T01:49:05.744Z,62.99
2024-03-24T01:50:05.783Z,66.06
2024-03-24T01:51:05.720Z,64.90
2024-03-24T01:52:05.663Z,62.72
2024-03-24T01:53:06.352Z,65.84
2024-03-24T01:54:05.638Z,57.90
2024-03-24T01:55:05.611Z,66.19
2024-03-24T01:56:05.606Z,58.16
2024-03-24T01:57:05.570Z,63.43
2024-03-24T01:58:05.601Z,57.96
2024-03-24T01:59:06.545Z,58.73
2024-03-24T02:00:05.529Z,64.12
2024-03-24T02:01:05.550Z,61.94
2024-03-24T02:02:05.481Z,59.72
2024-03-24T02:03:05.472Z,65.47
2024-03-24T02:04:05.468Z,63.50
2024-03-24T02:05:05.434Z,65.26
2024-03-24T02:06:05.407Z,59.21
2024-03-24T02:07:05.397Z,65.21
2024-03-24T02:08:06.321Z,59.91
2024-03-24T02:09:05.386Z,65.08
2024-03-24T02:10:05.375Z,64.78
2024-03-24T02:11:05.325Z,66.84
2024-03-24T02:12:05.321Z,62.25
2024-03-24T02:13:05.281Z,61.29
2024-03-24T02:14:06.267Z,60.85
2024-03-24T02:15:05.241Z,63.70
2024-03-24T02:16:05.342Z,65.00
2024-03-24T02:17:05.245Z,62.09
2024-03-24T02:18:05.196Z,61.30
2024-03-24T02:19:05.184Z,64.81
2024-03-24T02:20:05.155Z,61.99
2024-03-24T02:21:06.171Z,63.38
2024-03-24T02:22:05.146Z,60.07
2024-03-24T02:23:05.112Z,62.81
2024-03-24T02:24:06.086Z,65.64
2024-03-24T02:25:05.743Z,64.37
2024-03-24T02:26:05.059Z,63.55
2024-03-24T02:27:05.032Z,64.96
2024-03-24T02:28:05.030Z,62.48
2024-03-24T02:29:04.999Z,66.11
2024-03-24T02:30:05.985Z,62.75
2024-03-24T02:31:04.957Z,65.51
2024-03-24T02:32:05.826Z,67.00
2024-03-24T02:33:05.816Z,61.10
2024-03-24T02:34:05.746Z,60.40
2024-03-24T02:35:04.908Z,66.14
2024-03-24T02:36:04.875Z,64.24
2024-03-24T02:37:04.853Z,64.42
2024-03-24T02:38:04.897Z,63.34
2024-03-24T02:39:04.829Z,67.97
2024-03-24T02:40:04.839Z,59.84
2024-03-24T02:41:04.826Z,51.33
2024-03-24T02:42:04.771Z,51.64
2024-03-24T02:43:04.767Z,59.58
2024-03-24T02:44:04.730Z,63.94
2024-03-24T02:45:05.750Z,62.64
2024-03-24T02:46:04.695Z,63.61
2024-03-24T02:47:04.681Z,65.81
2024-03-24T02:48:04.769Z,64.45
2024-03-24T02:49:04.667Z,66.21
2024-03-24T02:50:04.630Z,65.24
2024-03-24T02:51:04.613Z,59.99
2024-03-24T02:52:04.575Z,69.33
2024-03-24T02:53:04.582Z,59.35
2024-03-24T02:54:04.559Z,59.46
2024-03-24T02:55:04.544Z,66.34
2024-03-24T02:56:04.545Z,61.95
2024-03-24T02:57:04.501Z,62.18
2024-03-24T02:58:04.512Z,59.70
2024-03-24T02:59:04.478Z,57.78
2024-03-24T03:00:04.441Z,65.13
2024-03-24T03:01:05.232Z,65.70
2024-03-24T03:02:05.403Z,61.16
2024-03-24T03:03:04.427Z,62.99
2024-03-24T03:04:04.399Z,64.83
2024-03-24T03:05:04.370Z,57.76
2024-03-24T03:06:04.335Z,62.11
2024-03-24T03:07:05.308Z,63.66
2024-03-24T03:08:04.285Z,64.19
2024-03-24T03:09:04.277Z,61.54
2024-03-24T03:10:05.721Z,67.04
2024-03-24T03:11:04.246Z,67.97
2024-03-24T03:12:04.241Z,63.56
2024-03-24T03:13:04.199Z,65.57
2024-03-24T03:14:04.187Z,61.82
2024-03-24T03:15:04.167Z,61.19
2024-03-24T03:16:04.140Z,62.93
2024-03-24T03:17:04.145Z,66.54
2024-03-24T03:18:04.110Z,62.37
2024-03-24T03:19:04.111Z,64.86
2024-03-24T03:20:04.122Z,67.93
2024-03-24T03:21:04.054Z,66.12
2024-03-24T03:22:04.036Z,64.43
2024-03-24T03:23:04.015Z,65.03
2024-03-24T03:24:04.016Z,65.12
2024-03-24T03:25:03.980Z,64.29
2024-03-24T03:26:03.955Z,63.18
2024-03-24T03:27:03.940Z,61.92
2024-03-24T03:28:03.926Z,62.71
2024-03-24T03:29:04.942Z,64.32
2024-03-24T03:30:03.909Z,63.36
2024-03-24T03:31:03.883Z,64.76
2024-03-24T03:32:03.864Z,63.60
2024-03-24T03:33:03.834Z,61.00
2024-03-24T03:34:03.830Z,66.96
2024-03-24T03:35:03.811Z,66.08
2024-03-24T03:36:03.776Z,64.15
2024-03-24T03:37:03.757Z,64.64
2024-03-24T03:38:03.739Z,63.86
2024-03-24T03:39:03.737Z,68.06
2024-03-24T03:40:03.713Z,64.38
2024-03-24T03:41:03.681Z,64.79
2024-03-24T03:42:03.661Z,61.71
2024-03-24T03:43:03.651Z,62.97
2024-03-24T03:44:03.629Z,61.55
2024-03-24T03:45:03.636Z,68.18
2024-03-24T03:46:03.594Z,66.93
2024-03-24T03:47:03.571Z,64.43
2024-03-24T03:48:03.555Z,67.09
2024-03-24T03:49:03.536Z,65.23
2024-03-24T03:50:03.537Z,61.31
2024-03-24T03:51:03.510Z,65.52
2024-03-24T03:52:03.482Z,62.78
2024-03-24T03:53:03.490Z,64.71
2024-03-24T03:54:03.452Z,65.40
2024-03-24T03:55:03.436Z,62.63
2024-03-24T03:56:03.427Z,62.68
2024-03-24T03:57:03.399Z,64.36
2024-03-24T03:58:03.381Z,65.55
2024-03-24T03:59:03.379Z,67.24
2024-03-24T04:00:03.347Z,64.23
2024-03-24T04:01:03.351Z,65.94
2024-03-24T04:02:03.335Z,64.59
2024-03-24T04:03:03.298Z,66.67
2024-03-24T04:04:03.278Z,66.60
2024-03-24T04:05:03.252Z,64.78
2024-03-24T04:06:03.260Z,60.60
2024-03-24T04:07:03.213Z,68.66
2024-03-24T04:08:03.228Z,64.97
2024-03-24T04:09:03.178Z,64.44
2024-03-24T04:10:03.163Z,63.68
2024-03-24T04:11:03.181Z,63.18
2024-03-24T04:12:03.125Z,65.05
2024-03-24T04:13:03.124Z,65.07
2024-03-24T04:14:03.085Z,67.75
2024-03-24T04:15:03.079Z,64.93
2024-03-24T04:16:03.059Z,64.83
2024-03-24T04:17:03.866Z,68.54
2024-03-24T04:18:03.024Z,68.70
2024-03-24T04:19:03.015Z,70.42
2024-03-24T04:20:02.986Z,69.00
2024-03-24T04:21:02.975Z,65.30
2024-03-24T04:22:02.979Z,66.36
2024-03-24T04:23:03.966Z,64.78
2024-03-24T04:24:02.915Z,69.34
2024-03-24T04:25:02.894Z,69.14
2024-03-24T04:26:03.771Z,63.96
2024-03-24T04:27:05.523Z,67.78
2024-03-24T04:28:03.858Z,63.69
2024-03-24T04:29:02.828Z,65.96
2024-03-24T04:30:03.816Z,67.54
2024-03-24T04:31:02.792Z,64.35
2024-03-24T04:32:02.827Z,67.74
2024-03-24T04:33:02.771Z,68.27
2024-03-24T04:34:02.738Z,69.79
2024-03-24T04:35:02.726Z,68.53
2024-03-24T04:36:02.710Z,65.93
2024-03-24T04:37:02.694Z,66.51
2024-03-24T04:38:02.679Z,64.46
2024-03-24T04:39:02.652Z,70.72
2024-03-24T04:40:02.641Z,68.00
2024-03-24T04:41:02.622Z,67.94
2024-03-24T04:42:02.613Z,64.94
2024-03-24T04:43:02.605Z,68.36
2024-03-24T04:44:02.570Z,68.34
2024-03-24T04:45:02.546Z,66.59
2024-03-24T04:46:03.543Z,68.31
2024-03-24T04:47:02.529Z,68.56
2024-03-24T04:48:02.518Z,68.95
2024-03-24T04:49:05.294Z,64.14
2024-03-24T04:50:02.460Z,70.74
2024-03-24T04:51:02.465Z,69.67
2024-03-24T04:52:02.412Z,66.71
2024-03-24T04:53:02.509Z,68.53
2024-03-24T04:54:02.378Z,69.39
2024-03-24T04:55:02.370Z,67.04
2024-03-24T04:56:02.343Z,68.91
2024-03-24T04:57:03.283Z,67.97
2024-03-24T04:58:02.333Z,66.07
2024-03-24T04:59:02.308Z,68.03
2024-03-24T05:00:02.306Z,67.34
2024-03-24T05:01:02.259Z,69.54
2024-03-24T05:02:02.230Z,70.01
2024-03-24T05:03:02.215Z,65.69
2024-03-24T05:04:02.208Z,68.91
2024-03-24T05:05:02.798Z,67.48
2024-03-24T05:06:02.164Z,69.01
2024-03-24T05:07:02.157Z,68.50
2024-03-24T05:08:02.164Z,68.94
2024-03-24T05:09:02.142Z,67.64
2024-03-24T05:10:03.775Z,68.30
2024-03-24T05:11:02.073Z,70.15
2024-03-24T05:12:02.055Z,70.68
2024-03-24T05:13:02.041Z,70.96
2024-03-24T05:14:02.779Z,71.01
2024-03-24T05:15:02.012Z,69.93
2024-03-24T05:16:01.982Z,69.99
2024-03-24T05:17:01.962Z,67.25
2024-03-24T05:18:01.950Z,68.07
2024-03-24T05:19:01.931Z,68.74
2024-03-24T05:20:01.922Z,69.14
2024-03-24T05:21:01.894Z,69.59
2024-03-24T05:22:02.747Z,66.34
2024-03-24T05:23:01.875Z,69.67
2024-03-24T05:24:01.837Z,70.21
2024-03-24T05:25:01.827Z,68.80
2024-03-24T05:26:01.799Z,68.93
2024-03-24T05:27:01.779Z,69.58
2024-03-24T05:28:01.767Z,68.71
2024-03-24T05:29:01.746Z,68.85
2024-03-24T05:30:01.767Z,71.96
2024-03-24T05:31:01.731Z,68.58
2024-03-24T05:32:01.706Z,69.86
2024-03-24T05:33:01.707Z,67.89
2024-03-24T05:34:01.659Z,70.31
2024-03-24T05:35:01.670Z,69.31
2024-03-24T05:36:01.792Z,69.97
2024-03-24T05:37:01.598Z,68.77
2024-03-24T05:38:01.583Z,68.09
2024-03-24T05:39:01.576Z,70.75
2024-03-24T05:40:01.622Z,68.76
2024-03-24T05:41:01.575Z,70.79
2024-03-24T05:42:01.510Z,71.17
2024-03-24T05:43:01.494Z,68.33
2024-03-24T05:44:01.475Z,71.83
2024-03-24T05:45:01.513Z,70.44
2024-03-24T05:46:01.466Z,69.43
2024-03-24T05:47:01.434Z,67.46
2024-03-24T05:48:01.406Z,71.43
2024-03-24T05:49:01.411Z,66.02
2024-03-24T05:50:01.369Z,64.69
2024-03-24T05:51:02.369Z,69.94
2024-03-24T05:52:01.341Z,70.51
2024-03-24T05:53:01.329Z,69.17
2024-03-24T05:54:01.318Z,70.26
2024-03-24T05:55:01.280Z,71.57
2024-03-24T05:56:01.553Z,71.34
2024-03-24T05:57:01.244Z,69.89
2024-03-24T05:58:01.271Z,70.44
2024-03-24T05:59:01.211Z,71.11
2024-03-24T06:00:01.187Z,69.30
2024-03-24T06:01:01.198Z,68.15
2024-03-24T06:02:01.173Z,66.72
2024-03-24T06:03:01.145Z,66.99
2024-03-24T06:04:01.116Z,69.15
2024-03-24T06:05:02.116Z,68.14
2024-03-24T06:06:01.098Z,68.56
2024-03-24T06:07:01.100Z,70.13
2024-03-24T06:08:01.055Z,68.23
2024-03-24T06:09:01.021Z,69.77
2024-03-24T06:10:01.011Z,72.85
2024-03-24T06:11:01.674Z,70.60
2024-03-24T06:12:01.005Z,70.40
2024-03-24T06:13:00.976Z,70.70
2024-03-24T06:14:00.934Z,70.66
2024-03-24T06:15:00.940Z,72.24
2024-03-24T06:16:01.934Z,70.82
2024-03-24T06:17:00.914Z,69.90
2024-03-24T06:18:00.872Z,68.65
2024-03-24T06:19:01.756Z,70.02
2024-03-24T06:20:00.847Z,71.02
2024-03-24T06:21:00.820Z,70.48
2024-03-24T06:22:00.806Z,68.17
2024-03-24T06:23:00.811Z,71.79
2024-03-24T06:24:00.766Z,70.82
2024-03-24T06:25:00.750Z,68.71
2024-03-24T06:26:01.282Z,70.86
2024-03-24T06:27:00.731Z,68.88
2024-03-24T06:28:00.720Z,70.00
2024-03-24T06:29:00.680Z,69.28
2024-03-24T06:30:00.784Z,70.37
2024-03-24T06:31:00.652Z,70.49
2024-03-24T06:32:00.627Z,70.45
2024-03-24T06:33:00.780Z,70.07
2024-03-24T06:34:00.596Z,68.10
2024-03-24T06:35:00.583Z,69.75
2024-03-24T06:36:00.567Z,69.35
2024-03-24T06:37:01.178Z,69.46
2024-03-24T06:38:01.566Z,68.22
2024-03-24T06:39:00.513Z,69.19
2024-03-24T06:40:00.510Z,71.44
2024-03-24T06:41:00.500Z,70.55
2024-03-24T06:42:00.460Z,67.40
2024-03-24T06:43:01.184Z,70.66
2024-03-24T06:44:00.425Z,71.44
2024-03-24T06:45:00.452Z,70.82
2024-03-24T06:46:00.381Z,72.13
2024-03-24T06:47:00.423Z,71.70
2024-03-24T06:48:00.410Z,71.93
2024-03-24T06:49:00.353Z,72.90
2024-03-24T06:50:00.426Z,72.11
2024-03-24T06:51:00.399Z,67.91
2024-03-24T06:52:00.330Z,71.07
2024-03-24T06:53:00.308Z,70.54
2024-03-24T06:54:00.309Z,69.19
2024-03-24T06:55:00.291Z,72.31
2024-03-24T06:56:00.284Z,69.30
2024-03-24T06:57:00.406Z,70.45
2024-03-24T06:58:00.182Z,71.42
2024-03-24T06:59:00.176Z,70.75
2024-03-24T07:00:00.200Z,69.74
2024-03-24T07:01:00.126Z,70.03
2024-03-24T07:02:00.109Z,72.55
2024-03-24T07:03:00.067Z,70.49
2024-03-24T07:04:00.065Z,72.74
2024-03-24T07:05:00.043Z,71.17
2024-03-24T07:06:00.034Z,71.68
2024-03-24T07:06:59.995Z,70.68
2024-03-24T07:07:59.995Z,71.76
2024-03-24T07:08:59.959Z,69.52
2024-03-24T07:10:02.812Z,70.39
2024-03-24T07:11:00.924Z,68.38
2024-03-24T07:11:59.920Z,67.75
2024-03-24T07:12:59.883Z,69.79
2024-03-24T07:13:59.866Z,71.19
2024-03-24T07:14:59.880Z,72.07
2024-03-24T07:15:59.829Z,70.67
2024-03-24T07:16:59.814Z,71.10
2024-03-24T07:17:59.910Z,71.60
2024-03-24T07:18:59.773Z,68.32
2024-03-24T07:20:00.784Z,72.19
2024-03-24T07:20:59.736Z,71.81
2024-03-24T07:21:59.727Z,70.66
2024-03-24T07:22:59.730Z,72.30
2024-03-24T07:23:59.700Z,70.61
2024-03-24T07:24:59.670Z,72.14
2024-03-24T07:25:59.655Z,70.65
2024-03-24T07:26:59.630Z,72.24
2024-03-24T07:28:00.613Z,70.06
2024-03-24T07:28:59.600Z,71.74
2024-03-24T07:29:59.583Z,69.06
2024-03-24T07:30:59.565Z,72.71
2024-03-24T07:32:00.182Z,71.94
2024-03-24T07:32:59.528Z,71.20
2024-03-24T07:33:59.497Z,70.86
2024-03-24T07:34:59.478Z,71.18
2024-03-24T07:35:59.506Z,70.20
2024-03-24T07:37:00.438Z,72.85
2024-03-24T07:37:59.430Z,72.71
2024-03-24T07:38:59.435Z,71.76
2024-03-24T07:39:59.395Z,72.08
2024-03-24T07:40:59.408Z,70.86
2024-03-24T07:41:59.356Z,72.53
2024-03-24T07:43:00.460Z,72.49
2024-03-24T07:43:59.309Z,69.62
2024-03-24T07:44:59.301Z,70.73
2024-03-24T07:45:59.291Z,72.06
2024-03-24T07:46:59.287Z,70.59
2024-03-24T07:47:59.243Z,71.17
2024-03-24T07:48:59.237Z,72.31
2024-03-24T07:49:59.207Z,70.34
2024-03-24T07:50:59.187Z,67.58
2024-03-24T07:51:59.181Z,72.20
2024-03-24T07:52:59.162Z,69.54
2024-03-24T07:53:59.671Z,72.89
2024-03-24T07:54:59.115Z,71.90
2024-03-24T07:55:59.102Z,71.45
2024-03-24T07:57:00.097Z,73.99
2024-03-24T07:57:59.051Z,72.49
2024-03-24T07:58:59.040Z,72.30
2024-03-24T07:59:59.017Z,72.04
2024-03-24T08:00:59.001Z,71.26
2024-03-24T08:01:59.753Z,72.61
2024-03-24T08:02:58.975Z,70.39
2024-03-24T08:03:58.943Z,71.83
2024-03-24T08:04:58.937Z,71.56
2024-03-24T08:05:58.908Z,71.35
2024-03-24T08:06:58.887Z,70.58
2024-03-24T08:07:58.904Z,72.32
2024-03-24T08:08:58.844Z,71.67
2024-03-24T08:09:58.870Z,71.35
2024-03-24T08:10:58.812Z,68.59
2024-03-24T08:11:58.801Z,70.81
2024-03-24T08:12:58.837Z,72.37
2024-03-24T08:13:58.753Z,69.90
2024-03-24T08:14:58.745Z,71.51
2024-03-24T08:15:58.719Z,73.59
2024-03-24T08:16:58.699Z,71.28
2024-03-24T08:17:58.750Z,71.20
2024-03-24T08:18:58.660Z,70.63
2024-03-24T08:19:58.643Z,70.67
2024-03-24T08:20:58.615Z,69.88
2024-03-24T08:22:00.622Z,72.26
2024-03-24T08:22:58.615Z,72.56
2024-03-24T08:23:58.564Z,73.30
2024-03-24T08:24:58.558Z,72.32
2024-03-24T08:25:58.532Z,72.94
2024-03-24T08:26:58.511Z,71.36
2024-03-24T08:27:58.490Z,71.82
2024-03-24T08:28:58.742Z,73.58
2024-03-24T08:29:58.461Z,71.98
2024-03-24T08:30:58.445Z,72.44
2024-03-24T08:31:58.436Z,70.42
2024-03-24T08:32:58.414Z,73.00
2024-03-24T08:33:58.394Z,71.59
2024-03-24T08:34:58.359Z,71.96
2024-03-24T08:35:58.342Z,72.38
2024-03-24T08:36:58.322Z,72.89
2024-03-24T08:37:58.310Z,73.25
2024-03-24T08:38:58.308Z,72.15
2024-03-24T08:39:58.278Z,71.71
2024-03-24T08:40:59.228Z,73.86
2024-03-24T08:42:02.532Z,72.78
2024-03-24T08:43:00.216Z,72.64
2024-03-24T08:43:58.675Z,73.89
2024-03-24T08:44:59.176Z,72.96
2024-03-24T08:45:59.158Z,72.94
2024-03-24T08:46:58.143Z,73.27
2024-03-24T08:47:58.125Z,73.49
2024-03-24T08:48:58.133Z,72.00
2024-03-24T08:49:58.092Z,73.68
2024-03-24T08:50:58.076Z,74.29
2024-03-24T08:51:58.045Z,72.44
2024-03-24T08:52:58.020Z,74.72
2024-03-24T08:53:58.014Z,74.07
2024-03-24T08:54:58.002Z,72.54
2024-03-24T08:55:57.965Z,73.21
2024-03-24T08:56:57.940Z,73.81
2024-03-24T08:57:58.924Z,74.39
2024-03-24T08:58:57.909Z,73.59
2024-03-24T08:59:57.912Z,74.29
2024-03-24T09:00:57.869Z,72.73
2024-03-24T09:01:57.866Z,72.11
2024-03-24T09:02:57.838Z,72.88
2024-03-24T09:03:57.824Z,71.48
2024-03-24T09:04:57.830Z,71.09
2024-03-24T09:05:57.788Z,73.47
2024-03-24T09:06:57.762Z,73.67
2024-03-24T09:07:57.742Z,73.31
2024-03-24T09:08:57.735Z,72.93
2024-03-24T09:09:57.712Z,74.40
2024-03-24T09:10:57.690Z,72.06
2024-03-24T09:11:57.666Z,71.35
2024-03-24T09:12:57.644Z,74.82
2024-03-24T09:13:57.623Z,73.46
2024-03-24T09:14:57.617Z,73.43
2024-03-24T09:15:57.599Z,73.90
2024-03-24T09:16:57.575Z,72.51
2024-03-24T09:17:57.554Z,70.32
2024-03-24T09:18:57.537Z,75.62
2024-03-24T09:19:57.522Z,73.80
2024-03-24T09:20:57.525Z,72.78
2024-03-24T09:21:57.494Z,74.46
2024-03-24T09:22:57.475Z,74.57
2024-03-24T09:23:57.451Z,75.19
2024-03-24T09:24:57.434Z,74.10
2024-03-24T09:25:57.464Z,73.15
2024-03-24T09:26:57.394Z,73.85
2024-03-24T09:27:57.392Z,72.88
2024-03-24T09:28:57.371Z,72.40
2024-03-24T09:29:57.359Z,72.13
2024-03-24T09:30:57.330Z,73.02
2024-03-24T09:31:57.322Z,74.62
2024-03-24T09:32:57.288Z,73.64
2024-03-24T09:33:57.269Z,72.09
2024-03-24T09:35:05.307Z,72.45
2024-03-24T09:35:59.243Z,73.33
2024-03-24T09:36:57.226Z,73.92
2024-03-24T09:37:57.210Z,73.59
2024-03-24T09:38:57.190Z,73.61
2024-03-24T09:39:57.162Z,72.99
2024-03-24T09:40:57.149Z,73.61
2024-03-24T09:41:57.245Z,73.56
2024-03-24T09:42:57.113Z,73.45
2024-03-24T09:43:57.094Z,72.98
2024-03-24T09:44:57.078Z,74.06
2024-03-24T09:45:57.061Z,71.84
2024-03-24T09:46:57.058Z,73.40
2024-03-24T09:47:57.052Z,73.09
2024-03-24T09:48:57.012Z,73.29
2024-03-24T09:49:57.989Z,73.92
2024-03-24T09:50:56.962Z,73.49
2024-03-24T09:51:58.734Z,74.44
2024-03-24T09:52:57.714Z,72.24
2024-03-24T09:53:56.920Z,73.84
2024-03-24T09:54:56.901Z,74.12
2024-03-24T09:55:56.896Z,74.62
2024-03-24T09:56:56.890Z,71.98
2024-03-24T09:58:06.904Z,72.56
2024-03-24T09:58:57.836Z,74.32
2024-03-24T09:59:56.814Z,73.43
2024-03-24T10:00:57.705Z,73.16
2024-03-24T10:01:56.782Z,72.80
2024-03-24T10:02:56.778Z,73.37
2024-03-24T10:03:56.744Z,73.12
2024-03-24T10:04:56.722Z,73.88
2024-03-24T10:05:56.708Z,72.02
2024-03-24T10:06:56.695Z,73.14
2024-03-24T10:07:56.704Z,73.54
2024-03-24T10:08:56.678Z,74.16
2024-03-24T10:09:57.182Z,73.97
2024-03-24T10:10:56.631Z,73.40
2024-03-24T10:11:56.603Z,72.45
2024-03-24T10:12:56.619Z,72.10
2024-03-24T10:13:56.567Z,72.52
2024-03-24T10:14:56.583Z,73.58
2024-03-24T10:15:56.547Z,73.93
2024-03-24T10:16:56.527Z,74.07
2024-03-24T10:17:56.509Z,74.29
2024-03-24T10:18:56.489Z,72.64
2024-03-24T10:19:56.477Z,73.19
2024-03-24T10:20:56.442Z,74.61
2024-03-24T10:21:56.424Z,73.43
2024-03-24T10:22:56.420Z,73.06
2024-03-24T10:23:56.403Z,74.18
2024-03-24T10:24:56.393Z,75.54
2024-03-24T10:25:56.370Z,75.12
2024-03-24T10:26:56.341Z,73.13
2024-03-24T10:27:56.312Z,73.27
2024-03-24T10:28:56.319Z,74.30
2024-03-24T10:29:56.286Z,75.43
2024-03-24T10:30:56.259Z,73.28
2024-03-24T10:31:56.248Z,75.04
2024-03-24T10:32:56.224Z,73.05
2024-03-24T10:33:56.241Z,73.87
2024-03-24T10:34:56.191Z,74.80
2024-03-24T10:35:56.179Z,74.52
2024-03-24T10:36:56.157Z,73.44
2024-03-24T10:37:56.137Z,74.79
2024-03-24T10:38:56.114Z,73.69
2024-03-24T10:39:56.114Z,71.67
2024-03-24T10:40:56.072Z,70.88
2024-03-24T10:41:57.074Z,71.66
2024-03-24T10:42:56.050Z,73.53
2024-03-24T10:43:56.624Z,72.27
2024-03-24T10:44:56.042Z,72.99
2024-03-24T10:45:56.009Z,71.98
2024-03-24T10:46:55.982Z,72.55
2024-03-24T10:47:55.975Z,72.74
2024-03-24T10:48:55.949Z,73.32
2024-03-24T10:49:55.932Z,72.28
2024-03-24T10:50:55.925Z,74.02
2024-03-24T10:51:55.895Z,73.23
2024-03-24T10:52:58.128Z,74.09
2024-03-24T10:53:55.860Z,74.57
2024-03-24T10:54:55.840Z,74.85
2024-03-24T10:55:55.828Z,75.17
2024-03-24T10:56:55.818Z,74.37
2024-03-24T10:57:55.787Z,73.78
2024-03-24T10:58:55.760Z,73.51
2024-03-24T10:59:56.626Z,74.07
2024-03-24T11:00:55.748Z,75.07
2024-03-24T11:01:55.715Z,72.97
2024-03-24T11:02:55.692Z,72.30
2024-03-24T11:03:55.675Z,73.09
2024-03-24T11:04:55.655Z,73.20
2024-03-24T11:05:55.667Z,71.23
2024-03-24T11:06:55.624Z,74.07
2024-03-24T11:07:55.609Z,73.25
2024-03-24T11:08:55.590Z,73.01
2024-03-24T11:09:55.568Z,72.27
2024-03-24T11:10:56.588Z,73.25
2024-03-24T11:11:55.534Z,73.40
2024-03-24T11:12:55.527Z,72.07
2024-03-24T11:13:55.510Z,73.92
2024-03-24T11:14:56.488Z,72.99
2024-03-24T11:15:55.468Z,73.09
2024-03-24T11:16:55.477Z,74.34
2024-03-24T11:17:55.440Z,74.01
2024-03-24T11:18:57.207Z,73.20
2024-03-24T11:19:56.398Z,72.69
2024-03-24T11:20:55.389Z,72.20
2024-03-24T11:21:55.365Z,72.10
2024-03-24T11:22:55.347Z,71.99
2024-03-24T11:23:55.344Z,73.13
2024-03-24T11:24:55.310Z,72.58
2024-03-24T11:25:55.293Z,73.17
2024-03-24T11:26:55.308Z,73.57
2024-03-24T11:27:55.256Z,71.92
2024-03-24T11:28:55.251Z,74.37
2024-03-24T11:29:56.122Z,73.82
2024-03-24T11:30:56.210Z,73.10
2024-03-24T11:31:55.208Z,70.61
2024-03-24T11:32:55.184Z,73.38
2024-03-24T11:33:55.157Z,72.35
2024-03-24T11:34:55.142Z,73.06
2024-03-24T11:35:55.123Z,72.04
2024-03-24T11:36:55.102Z,72.10
2024-03-24T11:37:55.103Z,73.17
2024-03-24T11:38:55.072Z,72.43
2024-03-24T11:39:55.048Z,72.60
2024-03-24T11:40:55.040Z,71.64
2024-03-24T11:41:55.021Z,71.22
2024-03-24T11:42:55.026Z,72.18
2024-03-24T11:43:54.985Z,73.28
2024-03-24T11:44:54.966Z,73.76
2024-03-24T11:45:54.948Z,71.84
2024-03-24T11:46:54.940Z,71.32
2024-03-24T11:47:54.951Z,71.39
2024-03-24T11:48:54.908Z,72.40
2024-03-24T11:49:54.881Z,70.93
2024-03-24T11:50:54.869Z,73.06
2024-03-24T11:51:54.846Z,72.41
2024-03-24T11:52:54.841Z,74.48
2024-03-24T11:53:54.820Z,72.60
2024-03-24T11:54:54.805Z,73.12
2024-03-24T11:55:54.784Z,73.26
2024-03-24T11:56:54.771Z,73.56
2024-03-24T11:57:54.748Z,72.98
2024-03-24T11:58:54.747Z,72.55
2024-03-24T11:59:54.712Z,72.43
2024-03-24T12:00:54.688Z,71.90
2024-03-24T12:01:55.679Z,71.85
2024-03-24T12:02:54.662Z,72.98
2024-03-24T12:03:54.664Z,72.29
2024-03-24T12:04:54.625Z,72.60
2024-03-24T12:05:54.607Z,72.48
2024-03-24T12:06:54.594Z,72.98
2024-03-24T12:07:55.180Z,73.51
2024-03-24T12:08:54.588Z,71.99
2024-03-24T12:09:54.539Z,72.28
2024-03-24T12:10:54.520Z,72.71
2024-03-24T12:11:55.214Z,73.42
2024-03-24T12:12:54.500Z,78.04
2024-03-24T12:13:54.463Z,78.20
2024-03-24T12:14:54.466Z,78.80
2024-03-24T12:15:54.431Z,71.98
2024-03-24T12:16:54.425Z,71.52
2024-03-24T12:17:54.409Z,71.94
2024-03-24T12:18:54.386Z,72.23
2024-03-24T12:19:54.381Z,73.22
2024-03-24T12:20:54.492Z,72.82
2024-03-24T12:21:54.351Z,73.26
2024-03-24T12:22:54.588Z,70.76
2024-03-24T12:23:54.295Z,72.62
2024-03-24T12:24:54.303Z,72.20
2024-03-24T12:25:54.251Z,72.62
2024-03-24T12:26:55.267Z,72.18
2024-03-24T12:27:54.234Z,73.12
2024-03-24T12:28:54.227Z,70.69
2024-03-24T12:29:54.217Z,70.99
2024-03-24T12:30:55.193Z,72.28
2024-03-24T12:31:54.164Z,74.31
2024-03-24T12:32:54.143Z,70.20
2024-03-24T12:33:55.155Z,72.60
2024-03-24T12:34:55.836Z,71.78
2024-03-24T12:35:56.117Z,73.35
2024-03-24T12:36:54.073Z,71.61
2024-03-24T12:37:55.057Z,72.32
2024-03-24T12:38:54.037Z,71.85
2024-03-24T12:39:54.026Z,71.10
2024-03-24T12:40:55.446Z,72.59
2024-03-24T12:41:54.988Z,73.16
2024-03-24T12:42:53.971Z,72.26
2024-03-24T12:43:53.958Z,73.12
2024-03-24T12:44:53.945Z,71.88
2024-03-24T12:45:53.937Z,72.15
2024-03-24T12:46:53.907Z,73.39
2024-03-24T12:47:54.597Z,72.15
2024-03-24T12:48:53.872Z,71.33
2024-03-24T12:50:55.212Z,73.52
2024-03-24T12:51:54.829Z,71.90
2024-03-24T12:52:53.808Z,71.26